createdAt,value
2023-04-12T00:00:16.689Z,21.95
2023-04-12T00:04:16.984Z,21.97
2023-04-12T00:08:17.021Z,21.97
2023-04-12T00:12:17.226Z,21.95
2023-04-12T00:16:17.485Z,22.00
2023-04-12T00:20:17.613Z,21.97
2023-04-12T00:24:17.780Z,21.98
2023-04-12T00:28:17.959Z,21.97
2023-04-12T00:32:18.141Z,21.97
2023-04-12T00:36:18.420Z,22.01
2023-04-12T00:40:18.510Z,22.00
2023-04-12T00:44:18.641Z,22.00
2023-04-12T00:48:18.838Z,21.98
2023-04-12T00:52:19.006Z,22.00
2023-04-12T00:56:19.137Z,22.01
2023-04-12T01:00:19.327Z,22.01
2023-04-12T01:04:19.464Z,22.01
2023-04-12T01:08:19.643Z,22.02
2023-04-12T01:12:19.768Z,22.01
2023-04-12T01:16:19.948Z,22.04
2023-04-12T01:20:20.077Z,22.04
2023-04-12T01:24:20.283Z,22.02
2023-04-12T01:28:20.412Z,22.04
2023-04-12T01:32:20.531Z,22.07
2023-04-12T01:36:20.733Z,22.04
2023-04-12T01:40:20.846Z,22.04
2023-04-12T01:44:20.986Z,22.05
2023-04-12T01:48:21.192Z,22.07
2023-04-12T01:52:21.294Z,22.05
2023-04-12T01:56:21.481Z,22.07
2023-04-12T02:00:21.657Z,22.05
2023-04-12T02:04:21.806Z,22.07
2023-04-12T02:08:21.978Z,22.08
2023-04-12T02:12:22.101Z,22.08
2023-04-12T02:16:22.267Z,22.11
2023-04-12T02:20:22.323Z,22.09
2023-04-12T02:24:22.510Z,22.12
2023-04-12T02:28:22.638Z,22.12
2023-04-12T02:32:22.780Z,22.09
2023-04-12T02:36:22.857Z,22.09
2023-04-12T02:40:23.021Z,22.14
2023-04-12T02:44:23.155Z,22.11
2023-04-12T02:48:23.272Z,22.12
2023-04-12T02:52:23.369Z,22.14
2023-04-12T02:56:23.540Z,22.14
2023-04-12T03:00:23.590Z,22.12
2023-04-12T03:04:23.824Z,22.14
2023-04-12T03:08:23.861Z,22.16
2023-04-12T03:12:23.945Z,22.15
2023-04-12T03:16:24.078Z,22.16
2023-04-12T03:20:24.203Z,22.15
2023-04-12T03:24:24.342Z,22.15
2023-04-12T03:28:24.417Z,22.15
2023-04-12T03:32:24.650Z,22.16
2023-04-12T03:36:24.615Z,22.18
2023-04-12T03:40:24.781Z,22.16
2023-04-12T03:44:24.809Z,22.15
2023-04-12T03:48:24.913Z,22.18
2023-04-12T03:52:25.040Z,22.19
2023-04-12T03:56:25.104Z,22.19
2023-04-12T04:00:25.251Z,22.16
2023-04-12T04:04:25.389Z,22.21
2023-04-12T04:08:25.395Z,22.19
2023-04-12T04:12:25.484Z,22.21
2023-04-12T04:16:25.610Z,22.18
2023-04-12T04:20:27.773Z,22.22
2023-04-12T04:24:25.728Z,22.18
2023-04-12T04:28:25.808Z,22.21
2023-04-12T04:32:25.949Z,22.21
2023-04-12T04:36:25.991Z,22.21
2023-04-12T04:40:26.109Z,22.22
2023-04-12T04:44:26.156Z,22.21
2023-04-12T04:48:26.253Z,22.23
2023-04-12T04:52:26.308Z,22.23
2023-04-12T04:56:26.377Z,22.23
2023-04-12T05:00:26.461Z,22.22
2023-04-12T05:04:26.729Z,22.25
2023-04-12T05:08:26.648Z,22.27
2023-04-12T05:12:26.706Z,22.25
2023-04-12T05:16:26.771Z,22.16
2023-04-12T05:20:26.892Z,22.16
2023-04-12T05:24:27.098Z,22.09
2023-04-12T05:28:27.260Z,22.05
2023-04-12T05:32:27.546Z,21.98
2023-04-12T05:36:27.635Z,22.00
2023-04-12T05:40:27.845Z,22.02
2023-04-12T05:44:27.968Z,22.05
2023-04-12T05:48:28.141Z,21.98
2023-04-12T05:52:28.261Z,22.05
2023-04-12T05:56:28.388Z,22.11
2023-04-12T06:00:28.458Z,22.16
2023-04-12T06:04:42.156Z,22.21
2023-04-12T06:08:29.473Z,22.25
2023-04-12T06:12:28.494Z,22.28
2023-04-12T06:16:28.421Z,22.29
2023-04-12T06:20:28.342Z,22.32
2023-04-12T06:24:28.344Z,22.36
2023-04-12T06:28:28.407Z,22.38
2023-04-12T06:32:28.460Z,22.39
2023-04-12T06:36:28.425Z,22.41
2023-04-12T06:40:28.481Z,22.42
2023-04-12T06:44:28.581Z,22.41
2023-04-12T06:48:28.666Z,22.43
2023-04-12T06:52:28.815Z,22.45
2023-04-12T06:56:28.969Z,22.46
2023-04-12T07:00:29.356Z,22.41
2023-04-12T07:04:29.341Z,22.32
2023-04-12T07:08:30.338Z,22.27
2023-04-12T07:12:29.513Z,22.19
2023-04-12T07:16:29.720Z,22.19
2023-04-12T07:20:30.102Z,22.18
2023-04-12T07:24:29.722Z,22.23
2023-04-12T07:28:29.762Z,22.25
2023-04-12T07:32:30.289Z,22.28
2023-04-12T07:36:30.093Z,22.31
2023-04-12T07:40:30.313Z,22.32
2023-04-12T07:44:30.501Z,22.36
2023-04-12T07:48:30.634Z,22.45
2023-04-12T07:52:30.775Z,22.15
2023-04-12T07:56:30.871Z,22.08
2023-04-12T08:00:31.031Z,22.07
2023-04-12T08:04:31.180Z,22.14
2023-04-12T08:08:31.267Z,22.21
2023-04-12T08:12:31.302Z,22.29
2023-04-12T08:16:31.397Z,22.42
2023-04-12T08:20:31.507Z,22.45
2023-04-12T08:24:31.695Z,22.56
2023-04-12T08:28:31.971Z,22.64
2023-04-12T08:32:32.086Z,22.66
2023-04-12T08:36:32.446Z,22.74
2023-04-12T08:40:32.428Z,22.83
2023-04-12T08:44:32.582Z,23.01
2023-04-12T08:48:32.826Z,23.10
2023-04-12T08:52:32.966Z,23.10
2023-04-12T08:56:33.120Z,23.10
2023-04-12T09:00:33.312Z,23.10
2023-04-12T09:04:33.527Z,23.11
2023-04-12T09:08:33.469Z,23.11
2023-04-12T09:12:33.501Z,23.13
2023-04-12T09:16:33.706Z,23.01
2023-04-12T09:20:33.763Z,23.03
2023-04-12T09:24:33.998Z,22.98
2023-04-12T09:28:34.056Z,23.03
2023-04-12T09:32:34.217Z,23.01
2023-04-12T09:36:34.392Z,22.96
2023-04-12T09:40:34.669Z,23.03
2023-04-12T09:44:34.709Z,23.01
2023-04-12T09:48:34.921Z,23.07
2023-04-12T09:52:35.052Z,23.17
2023-04-12T09:56:35.211Z,23.27
2023-04-12T10:00:35.331Z,23.35
2023-04-12T10:04:35.594Z,23.41
2023-04-12T10:08:35.725Z,23.42
2023-04-12T10:12:35.896Z,23.41
2023-04-12T10:16:35.973Z,23.40
2023-04-12T10:20:36.022Z,23.35
2023-04-12T10:24:36.040Z,23.31
2023-04-12T10:28:36.101Z,23.28
2023-04-12T10:32:36.210Z,23.29
2023-04-12T10:36:36.249Z,23.25
2023-04-12T10:40:36.294Z,23.22
2023-04-12T10:44:36.407Z,23.22
2023-04-12T10:48:36.568Z,23.21
2023-04-12T10:52:36.556Z,23.21
2023-04-12T10:56:36.658Z,23.19
2023-04-12T11:00:36.836Z,23.17
2023-04-12T11:04:37.080Z,23.15
2023-04-12T11:08:36.912Z,23.13
2023-04-12T11:12:37.168Z,23.11
2023-04-12T11:16:37.099Z,23.11
2023-04-12T11:20:37.150Z,23.07
2023-04-12T11:24:37.247Z,23.07
2023-04-12T11:28:37.385Z,23.06
2023-04-12T11:32:37.482Z,23.06
2023-04-12T11:36:37.629Z,23.07
2023-04-12T11:40:37.705Z,23.07
2023-04-12T11:44:52.369Z,23.07
2023-04-12T11:48:39.062Z,23.07
2023-04-12T11:52:37.778Z,23.08
2023-04-12T11:56:37.714Z,23.08
2023-04-12T12:00:37.673Z,23.11
2023-04-12T12:04:37.958Z,23.13
2023-04-12T12:08:37.800Z,23.13
2023-04-12T12:12:37.867Z,23.14
2023-04-12T12:16:37.939Z,23.14
2023-04-12T12:20:38.177Z,23.11
2023-04-12T12:24:42.010Z,23.15
2023-04-12T12:28:38.114Z,23.15
2023-04-12T12:32:38.125Z,23.15
2023-04-12T12:36:38.035Z,23.13
2023-04-12T12:40:37.956Z,23.13
2023-04-12T12:44:38.079Z,23.13
2023-04-12T12:48:38.049Z,23.08
2023-04-12T12:52:38.100Z,23.07
2023-04-12T12:56:38.173Z,23.06
2023-04-12T13:00:45.736Z,23.08
2023-04-12T13:04:38.427Z,23.07
2023-04-12T13:08:38.214Z,23.08
2023-04-12T13:12:38.273Z,23.10
2023-04-12T13:16:38.249Z,23.10
2023-04-12T13:20:38.100Z,23.07
2023-04-12T13:24:38.092Z,23.10
2023-04-12T13:28:38.019Z,23.10
2023-04-12T13:32:38.187Z,23.08
2023-04-12T13:36:38.259Z,23.10
2023-04-12T13:40:38.353Z,23.08
2023-04-12T13:44:38.465Z,23.11
2023-04-12T13:48:38.558Z,23.08
2023-04-12T13:52:38.643Z,23.07
2023-04-12T13:56:38.752Z,23.06
2023-04-12T14:00:38.870Z,23.07
2023-04-12T14:04:39.008Z,23.06
2023-04-12T14:08:39.040Z,23.04
2023-04-12T14:12:39.210Z,23.03
2023-04-12T14:16:39.322Z,23.04
2023-04-12T14:20:39.345Z,23.04
2023-04-12T14:24:39.454Z,23.06
2023-04-12T14:28:39.549Z,23.06
2023-04-12T14:32:39.677Z,23.04
2023-04-12T14:36:40.258Z,23.06
2023-04-12T14:40:39.874Z,23.04
2023-04-12T14:44:40.018Z,23.01
2023-04-12T14:48:40.067Z,23.04
2023-04-12T14:52:40.217Z,23.01
2023-04-12T14:56:48.380Z,23.01
2023-04-12T15:00:41.221Z,23.03
2023-04-12T15:04:40.256Z,23.03
2023-04-12T15:08:40.163Z,23.04
2023-04-12T15:12:40.142Z,23.03
2023-04-12T15:16:40.255Z,23.04
2023-04-12T15:20:40.421Z,23.04
2023-04-12T15:24:40.444Z,23.01
2023-04-12T15:28:40.541Z,23.06
2023-04-12T15:32:42.127Z,23.06
2023-04-12T15:36:40.778Z,23.04
2023-04-12T15:40:40.829Z,23.04
2023-04-12T15:44:40.905Z,23.04
2023-04-12T15:48:41.007Z,23.04
2023-04-12T15:52:41.132Z,23.06
2023-04-12T15:56:41.192Z,23.08
2023-04-12T16:00:41.334Z,23.08
2023-04-12T16:04:41.578Z,23.10
2023-04-12T16:08:41.490Z,23.07
2023-04-12T16:12:41.595Z,23.07
2023-04-12T16:16:41.717Z,23.07
2023-04-12T16:20:41.742Z,23.08
2023-04-12T16:24:41.806Z,23.07
2023-04-12T16:28:41.903Z,23.06
2023-04-12T16:32:42.022Z,23.06
2023-04-12T16:36:42.172Z,23.06
2023-04-12T16:40:42.225Z,23.06
2023-04-12T16:44:42.321Z,23.06
2023-04-12T16:48:42.402Z,23.07
2023-04-12T16:52:42.518Z,23.07
2023-04-12T16:56:42.626Z,23.06
2023-04-12T17:00:42.724Z,23.08
2023-04-12T17:04:42.816Z,23.07
2023-04-12T17:08:42.886Z,23.07
2023-04-12T17:12:43.026Z,23.06
2023-04-12T17:16:43.166Z,23.07
2023-04-12T17:20:43.126Z,23.07
2023-04-12T17:24:43.249Z,23.08
2023-04-12T17:28:43.339Z,23.08
2023-04-12T17:32:43.448Z,23.08
2023-04-12T17:36:43.533Z,23.07
2023-04-12T17:40:43.594Z,23.07
2023-04-12T17:44:43.723Z,23.07
2023-04-12T17:48:43.757Z,23.07
2023-04-12T17:52:43.863Z,23.10
2023-04-12T17:56:43.942Z,23.08
2023-04-12T18:00:44.027Z,23.10
2023-04-12T18:04:44.190Z,23.11
2023-04-12T18:08:44.206Z,23.13
2023-04-12T18:12:44.278Z,23.13
2023-04-12T18:16:44.406Z,23.10
2023-04-12T18:20:44.451Z,23.11
2023-04-12T18:24:44.550Z,23.13
2023-04-12T18:28:44.635Z,23.13
2023-04-12T18:32:44.799Z,23.11
2023-04-12T18:36:44.802Z,23.11
2023-04-12T18:40:44.855Z,23.11
2023-04-12T18:44:45.052Z,23.08
2023-04-12T18:48:45.053Z,23.11
2023-04-12T18:52:45.191Z,23.11
2023-04-12T18:56:45.300Z,23.08
2023-04-12T19:00:45.402Z,23.08
2023-04-12T19:04:45.480Z,23.11
2023-04-12T19:08:45.600Z,23.08
2023-04-12T19:12:45.677Z,23.10
2023-04-12T19:16:45.893Z,23.10
2023-04-12T19:20:45.848Z,23.11
2023-04-12T19:24:45.942Z,23.10
2023-04-12T19:28:46.031Z,23.10
2023-04-12T19:32:46.249Z,23.08
2023-04-12T19:36:46.267Z,23.11
2023-04-12T19:40:46.362Z,23.10
2023-04-12T19:44:46.443Z,23.13
2023-04-12T19:48:46.582Z,23.10
2023-04-12T19:52:46.609Z,23.13
2023-04-12T19:56:46.707Z,23.13
2023-04-12T20:00:46.827Z,23.14
2023-04-12T20:04:46.887Z,23.14
2023-04-12T20:08:46.993Z,23.13
2023-04-12T20:12:47.072Z,23.14
2023-04-12T20:16:47.172Z,23.11
2023-04-12T20:20:47.260Z,23.14
2023-04-12T20:24:47.353Z,23.13
2023-04-12T20:28:47.412Z,23.14
2023-04-12T20:32:47.589Z,23.15
2023-04-12T20:36:47.569Z,23.14
2023-04-12T20:40:47.695Z,23.13
2023-04-12T20:44:47.773Z,23.14
2023-04-12T20:48:47.844Z,23.13
2023-04-12T20:52:48.808Z,23.15
2023-04-12T20:56:48.023Z,23.13
2023-04-12T21:00:48.125Z,23.13
2023-04-12T21:04:48.229Z,23.13
2023-04-12T21:08:48.270Z,23.11
2023-04-12T21:12:48.353Z,23.14
2023-04-12T21:16:48.486Z,23.14
2023-04-12T21:20:48.527Z,23.15
2023-04-12T21:24:48.607Z,23.11
2023-04-12T21:28:48.701Z,23.11
2023-04-12T21:32:48.828Z,23.13
2023-04-12T21:36:48.889Z,23.10
2023-04-12T21:40:48.966Z,23.14
2023-04-12T21:44:49.027Z,23.13
2023-04-12T21:48:49.129Z,23.13
2023-04-12T21:52:49.213Z,23.14
2023-04-12T21:56:49.312Z,23.15
2023-04-12T22:00:49.377Z,23.14
2023-04-12T22:04:49.474Z,23.15
2023-04-12T22:08:49.543Z,23.15
2023-04-12T22:12:49.657Z,23.13
2023-04-12T22:16:49.796Z,23.15
2023-04-12T22:20:49.822Z,23.14
2023-04-12T22:24:49.911Z,23.14
2023-04-12T22:28:49.986Z,23.14
2023-04-12T22:32:50.157Z,23.14
2023-04-12T22:36:50.194Z,23.15
2023-04-12T22:40:50.298Z,23.17
2023-04-12T22:44:50.396Z,23.14
2023-04-12T22:48:50.494Z,23.14
2023-04-12T22:52:50.612Z,23.15
2023-04-12T22:56:50.676Z,23.14
2023-04-12T23:00:50.756Z,23.15
2023-04-12T23:04:50.859Z,23.15
2023-04-12T23:08:50.905Z,23.15
2023-04-12T23:12:51.029Z,23.15
2023-04-12T23:16:51.110Z,23.14
2023-04-12T23:20:51.117Z,23.15
2023-04-12T23:24:51.233Z,23.17
2023-04-12T23:28:51.305Z,23.15
2023-04-12T23:32:51.445Z,23.18
2023-04-12T23:36:51.520Z,23.18
2023-04-12T23:40:51.613Z,23.18
2023-04-12T23:44:51.670Z,23.17
2023-04-12T23:48:51.788Z,23.17
2023-04-12T23:52:51.852Z,23.15
2023-04-12T23:56:51.942Z,23.17
